• Join FlightAware (Why Join?)
  • Login
  • US Flag 
07:56PM EST


 

Airport Tracker/Info


-or-


 

Live Flight TrackerFlight Track Log ✈ FDX1570 ✈ 05-Jul-2013 ✈ KMEM - KALB

Flight Track Log - Related Links

Times and Time Zones

All times are in EDT time to prevent confusion due to time zone crossing. See the FDX1570 flight status page for this flight to view local times or setup timezone preferences in your user account.

Time Position Orientation Groundspeed Altitude Reporting Facility
EDT Latitude Longitude Course Direction KTS MPH feet Rate Location/Type
04:07AM 35.0167 -89.9667 180° South 183 211 1,500  Level KMEM
04:08AM 34.9833 -89.9667 180° South 191 220 2,800 2,280 Climbing KMEM
04:09AM 34.9333 -89.9000 132° Southeast 287 330 5,800 3,000 Climbing KMEM
04:11AM 35.0058 -89.7283 63° Northeast 325 374 12,000 2,880 Climbing Memphis Center
04:12AM 35.0508 -89.6114 65° Northeast 355 409 14,300 2,340 Climbing Memphis Center
04:13AM 35.0961 -89.4992 64° Northeast 386 444 16,700 2,460 Climbing Memphis Center
04:14AM 35.1472 -89.3692 64° Northeast 412 474 19,300 2,580 Climbing Memphis Center
04:15AM 35.2025 -89.2314 64° Northeast 428 493 21,900 2,160 Climbing Memphis Center
04:16AM 35.2636 -89.0931 62° Northeast 449 517 23,700 1,740 Climbing Memphis Center
04:17AM 35.3436 -88.9569 54° Northeast 484 557 25,400 1,860 Climbing Memphis Center
04:23AM 35.8670 -88.0720 54° Northeast 509 586 36,900 1,800 Climbing FlightAware
04:24AM 35.9200 -87.9790 55° Northeast 510 587 37,600 1,140 Climbing FlightAware
04:24AM 35.9880 -87.8630 54° Northeast 512 589 38,600 960 Climbing FlightAware
04:25AM 36.0370 -87.7770 55° Northeast 515 593 39,000 240 Climbing FlightAware
04:26AM 36.1040 -87.6610 54° Northeast 524 603 39,000  Level FlightAware
04:26AM 36.1620 -87.5600 55° Northeast 528 608 39,000  Level FlightAware
04:27AM 36.2170 -87.4640 55° Northeast 531 611 39,000  Level FlightAware
04:28AM 36.2810 -87.3520 55° Northeast 532 612 39,000  Level FlightAware
04:29AM 36.3340 -87.2590 55° Northeast 534 615 39,000  Level FlightAware
04:29AM 36.3990 -87.1430 55° Northeast 535 616 39,000  Level FlightAware
04:30AM 36.4590 -87.0380 55° Northeast 534 615 39,000  Level FlightAware
04:31AM 36.5150 -86.9370 55° Northeast 535 616 39,000  Level FlightAware
04:31AM 36.5780 -86.8270 54° Northeast 535 616 39,000  Level FlightAware
04:32AM 36.6116 -86.7658 56° Northeast 536 617 39,000  Level FlightAware ADS-B
04:32AM 36.6551 -86.6873 55° Northeast 536 617 39,000  Level FlightAware ADS-B
04:33AM 36.6988 -86.6086 55° Northeast 536 617 39,000  Level FlightAware ADS-B
04:33AM 36.7540 -86.5100 55° Northeast 534 615 39,000  Level FlightAware
04:34AM 36.8020 -86.4240 55° Northeast 535 616 39,000  Level FlightAware
04:35AM 36.8690 -86.3020 56° Northeast 530 610 39,000  Level FlightAware
04:36AM 36.9355 -86.1817 55° Northeast 527 606 39,000  Level FlightAware ADS-B
04:36AM 36.9768 -86.1067 55° Northeast 525 604 39,000  Level FlightAware ADS-B
04:37AM 37.0201 -86.0271 56° Northeast 522 601 39,000  Level FlightAware ADS-B
04:37AM 37.0624 -85.9497 56° Northeast 521 600 39,000  Level FlightAware ADS-B
04:38AM 37.1031 -85.8751 56° Northeast 520 598 39,000  Level FlightAware ADS-B
04:38AM 37.1446 -85.8007 55° Northeast 520 598 39,000  Level FlightAware ADS-B
04:39AM 37.1861 -85.7235 56° Northeast 519 597 39,000  Level FlightAware ADS-B
04:39AM 37.2265 -85.6491 56° Northeast 518 596 39,000  Level FlightAware ADS-B
04:40AM 37.2674 -85.5744 55° Northeast 518 596 39,000  Level FlightAware ADS-B
04:40AM 37.3085 -85.4973 56° Northeast 518 596 39,000  Level FlightAware ADS-B
04:41AM 37.3489 -85.4226 56° Northeast 519 597 39,000  Level FlightAware ADS-B
04:41AM 37.3895 -85.3475 56° Northeast 518 596 39,000  Level FlightAware ADS-B
04:42AM 37.4302 -85.2703 56° Northeast 518 596 39,000  Level FlightAware ADS-B
04:42AM 37.4759 -85.1857 56° Northeast 515 593 39,000  Level FlightAware ADS-B
04:43AM 37.5158 -85.1109 56° Northeast 513 590 39,000  Level FlightAware ADS-B
04:43AM 37.5570 -85.0339 56° Northeast 513 590 39,000  Level FlightAware ADS-B
04:44AM 37.5967 -84.9570 57° Northeast 513 590 39,000  Level FlightAware ADS-B
04:44AM 37.6367 -84.8825 56° Northeast 513 590 39,000  Level FlightAware ADS-B
04:45AM 37.6763 -84.8078 56° Northeast 513 590 39,000  Level FlightAware ADS-B
04:45AM 37.7159 -84.7331 56° Northeast 514 592 39,000  Level FlightAware ADS-B
04:46AM 37.7559 -84.6555 57° Northeast 514 592 39,000  Level FlightAware ADS-B
04:46AM 37.7958 -84.5807 56° Northeast 514 592 39,000  Level FlightAware ADS-B
04:47AM 37.8367 -84.5031 56° Northeast 514 592 39,000  Level FlightAware ADS-B
04:47AM 37.8767 -84.4253 57° Northeast 513 590 39,000  Level FlightAware ADS-B
04:48AM 37.9173 -84.3475 56° Northeast 514 592 39,000  Level FlightAware ADS-B
04:48AM 37.9578 -84.2694 57° Northeast 514 592 39,000  Level FlightAware ADS-B
04:49AM 37.9970 -84.1960 56° Northeast 514 592 39,000  Level FlightAware
04:50AM 38.0530 -84.0920 56° Northeast 514 592 39,000  Level FlightAware
04:51AM 38.1190 -83.9660 56° Northeast 514 592 39,000  Level FlightAware
04:51AM 38.1600 -83.8890 56° Northeast 514 592 39,000  Level FlightAware
04:52AM 38.2500 -83.7030 58° Northeast 508 585 39,000  Level FlightAware
04:53AM 38.2910 -83.6220 57° Northeast 508 585 39,000  Level FlightAware
04:54AM 38.3740 -83.4590 57° Northeast 509 586 39,000  Level FlightAware
04:55AM 38.4310 -83.3460 57° Northeast 508 585 39,000  Level FlightAware
04:55AM 38.4870 -83.2350 57° Northeast 509 586 39,000  Level FlightAware
04:56AM 38.5360 -83.1370 57° Northeast 507 583 39,000  Level FlightAware
04:57AM 38.5870 -83.0360 57° Northeast 506 582 39,000  Level FlightAware
04:57AM 38.6410 -82.9280 57° Northeast 505 581 39,000  Level FlightAware
04:58AM 38.6920 -82.8240 58° Northeast 505 581 39,000  Level FlightAware
04:59AM 38.7450 -82.7180 57° Northeast 505 581 39,000  Level FlightAware
04:59AM 38.8000 -82.6050 58° Northeast 504 580 39,000  Level FlightAware
05:00AM 38.8490 -82.5060 58° Northeast 503 579 39,000  Level FlightAware
05:01AM 38.9020 -82.3980 58° Northeast 502 578 39,000  Level FlightAware
05:02AM 38.9580 -82.2840 58° Northeast 504 580 39,000  Level FlightAware
05:02AM 39.0090 -82.1820 57° Northeast 505 581 39,000  Level FlightAware
05:03AM 39.0620 -82.0700 59° Northeast 505 581 39,000  Level FlightAware
05:04AM 39.1130 -81.9660 58° Northeast 504 580 39,000  Level FlightAware
05:04AM 39.1660 -81.8560 58° Northeast 503 579 39,000  Level FlightAware
05:05AM 39.2150 -81.7540 58° Northeast 503 579 39,000  Level FlightAware
05:06AM 39.2690 -81.6420 58° Northeast 503 579 39,000  Level FlightAware
05:06AM 39.3200 -81.5350 58° Northeast 503 579 39,000  Level FlightAware
05:07AM 39.3690 -81.4320 58° Northeast 503 579 39,000  Level FlightAware
05:08AM 39.4230 -81.3200 58° Northeast 503 579 39,000  Level FlightAware
05:08AM 39.4600 -81.2400 59° Northeast 503 579 39,000  Level FlightAware
05:09AM 39.5130 -81.1270 59° Northeast 503 579 39,000  Level FlightAware
05:10AM 39.5660 -81.0140 59° Northeast 503 579 39,000  Level FlightAware
05:10AM 39.6070 -80.9260 59° Northeast 503 579 39,000  Level FlightAware
05:11AM 39.6580 -80.8180 58° Northeast 503 579 39,000  Level FlightAware
05:12AM 39.7070 -80.7120 59° Northeast 502 578 39,000  Level FlightAware
05:13AM 39.7610 -80.5960 59° Northeast 501 577 39,000  Level FlightAware
05:13AM 39.8080 -80.4930 59° Northeast 502 578 39,000  Level FlightAware
05:14AM 39.8590 -80.3840 59° Northeast 501 577 39,000  Level FlightAware
05:15AM 39.9250 -80.2390 59° Northeast 501 577 39,000  Level FlightAware
05:16AM 39.9760 -80.1280 59° Northeast 502 578 39,000  Level FlightAware
05:16AM 40.0340 -80.0000 59° Northeast 501 577 39,000  Level FlightAware
05:17AM 40.0770 -79.9070 59° Northeast 501 577 39,000  Level FlightAware
05:18AM 40.1230 -79.8050 59° Northeast 501 577 39,000  Level FlightAware
05:18AM 40.1720 -79.6950 60° Northeast 502 578 39,000  Level FlightAware
05:19AM 40.2190 -79.5910 59° Northeast 501 577 39,000  Level FlightAware
05:20AM 40.2710 -79.4730 60° Northeast 500 575 39,000  Level FlightAware
05:20AM 40.3220 -79.3610 59° Northeast 500 575 39,000  Level FlightAware
05:21AM 40.3660 -79.2610 60° Northeast 500 575 39,000  Level FlightAware
05:22AM 40.4190 -79.1410 60° Northeast 498 573 39,000  Level FlightAware
05:22AM 40.4570 -79.0540 60° Northeast 497 572 39,000  Level FlightAware
05:23AM 40.5100 -78.9340 60° Northeast 498 573 39,000  Level FlightAware
05:24AM 40.5560 -78.8290 60° Northeast 498 573 39,000  Level FlightAware
05:24AM 40.5850 -78.7630 60° Northeast 499 574 39,000  Level FlightAware
05:25AM 40.6420 -78.6320 60° Northeast 498 573 39,000  Level FlightAware
05:26AM 40.6810 -78.5420 60° Northeast 498 573 39,000  Level FlightAware
05:26AM 40.7079 -78.4792 61° Northeast 498 573 39,000  Level FlightAware ADS-B
05:27AM 40.7509 -78.3792 60° Northeast 497 572 39,000  Level FlightAware ADS-B
05:28AM 40.8180 -78.2240 60° Northeast 495 570 39,000  Level FlightAware
05:28AM 40.8640 -78.1160 61° Northeast 493 567 39,000 -300 Level FlightAware
05:29AM 40.9237 -77.9756 61° Northeast 487 560 38,600 -840 Descending FlightAware ADS-B
05:30AM 40.9654 -77.8826 59° Northeast 492 566 37,900 -1,080 Descending FlightAware ADS-B
05:30AM 41.0105 -77.7815 59° Northeast 496 571 37,300 -960 Descending FlightAware ADS-B
05:31AM 41.0478 -77.6977 59° Northeast 498 573 36,800 -960 Descending FlightAware ADS-B
05:32AM 41.0846 -77.6161 59° Northeast 498 573 36,300 -960 Descending FlightAware ADS-B
05:32AM 41.1250 -77.5239 60° Northeast 500 575 35,800 -840 Descending FlightAware ADS-B
05:33AM 41.1638 -77.4365 59° Northeast 500 575 35,400 -840 Descending FlightAware ADS-B
05:33AM 41.2008 -77.3519 60° Northeast 499 574 34,900 -960 Descending FlightAware ADS-B
05:34AM 41.2363 -77.2697 60° Northeast 501 577 34,400 -900 Descending FlightAware ADS-B
05:34AM 41.2713 -77.1894 60° Northeast 502 578 34,000 -840 Descending FlightAware ADS-B
05:35AM 41.3072 -77.1068 60° Northeast 502 578 33,600 -900 Descending FlightAware ADS-B
05:35AM 41.3453 -77.0213 59° Northeast 503 579 33,100 -1,080 Descending FlightAware ADS-B
05:36AM 41.3807 -76.9381 60° Northeast 506 582 32,500 -1,140 Descending FlightAware ADS-B
05:36AM 41.4158 -76.8567 60° Northeast 509 586 32,000 -1,140 Descending FlightAware ADS-B
05:37AM 41.4520 -76.7723 60° Northeast 512 589 31,400 -1,320 Descending FlightAware ADS-B
05:37AM 41.4875 -76.6899 60° Northeast 515 593 30,700 -1,500 Descending FlightAware ADS-B
05:38AM 41.5255 -76.6010 60° Northeast 519 597 29,900 -1,560 Descending FlightAware ADS-B
05:38AM 41.5617 -76.5165 60° Northeast 528 608 29,100 -900 Descending FlightAware ADS-B
05:39AM 41.6075 -76.4084 60° Northeast 530 610 28,900 -360 Descending FlightAware ADS-B
05:39AM 41.6434 -76.3240 60° Northeast 520 598 28,700 -540 Descending FlightAware ADS-B
05:40AM 41.6805 -76.2378 60° Northeast 513 590 28,400 -540 Descending FlightAware ADS-B
05:41AM 41.7152 -76.1558 60° Northeast 507 583 28,200 -420 Descending FlightAware ADS-B
05:41AM 41.7502 -76.0713 61° Northeast 503 579 28,000 -900 Descending FlightAware ADS-B
05:42AM 41.7849 -75.9897 60° Northeast 504 580 27,300 -1,200 Descending FlightAware ADS-B
05:42AM 41.8391 -75.8604 61° Northeast 510 587 26,500 -1,140 Descending FlightAware ADS-B
05:43AM 41.8793 -75.7635 61° Northeast 513 590 25,800 -300 Descending FlightAware ADS-B
05:43AM 41.9080 -75.6930 61° Northeast 508 585 26,200 -1,140 Climbing FlightAware
05:44AM 41.9620 -75.5630 61° Northeast 508 585 24,500 -1,620 Descending FlightAware
05:45AM 42.0140 -75.4370 61° Northeast 507 583 24,000 -480 Descending FlightAware
05:45AM 42.0510 -75.3490 60° Northeast 499 574 23,900 -1,500 Descending FlightAware
05:46AM 42.1050 -75.2270 59° Northeast 489 563 22,100 -2,940 Descending FlightAware
05:47AM 42.1530 -75.1250 58° Northeast 483 556 19,800 -2,160 Descending FlightAware
05:48AM 42.1960 -75.0310 58° Northeast 476 548 19,200 -420 Descending FlightAware
05:48AM 42.2450 -74.9240 58° Northeast 476 548 19,200  Level FlightAware
05:49AM 42.2830 -74.8420 58° Northeast 476 548 19,200  Level FlightAware
05:50AM 42.3300 -74.7390 58° Northeast 476 548 19,200  Level FlightAware
05:50AM 42.3640 -74.6660 58° Northeast 476 548 19,200 -4,860 Level FlightAware
05:51AM 42.4272 -74.5244 58° Northeast 359 413 11,600 -4,320 Descending Boston Center
05:52AM 42.4689 -74.4047 65° Northeast 325 374 10,600 -1,080 Descending Boston Center
05:53AM 42.5019 -74.2931 68° East 310 357 9,500 -1,380 Descending Boston Center
05:54AM 42.5328 -74.1925 67° East 288 331 7,900 -1,920 Descending Boston Center
05:55AM 42.5614 -74.0919 69° East 289 333 5,700 -1,980 Descending Boston Center
05:56AM 42.5919 -73.9939 67° East 288 331 4,000 -1,140 Descending Boston Center
05:57AM 42.6139 -73.9100 70° East 227 261 3,500 -600 Descending Boston Center
05:58AM 42.6378 -73.8258 69° East 193 222 2,800 -720 Descending Boston Center
05:59AM 42.6736 -73.8011 27° Northeast 167 192 2,100 -1,080 Descending Boston Center
06:00AM 42.7153 -73.8050 356° North 144 166 700 -1,380 Descending Boston Center